sensor_id;sensor_type;location;lat;lon;timestamp;P1;durP1;ratioP1;P2;durP2;ratioP2
43248;SDS011;29216;51.248;6.808;2023-08-08T00:02:21;3.53;;;2.13;;
43248;SDS011;29216;51.248;6.808;2023-08-08T00:04:48;2.78;;;2.40;;
43248;SDS011;29216;51.248;6.808;2023-08-08T00:07:15;5.38;;;2.25;;
43248;SDS011;29216;51.248;6.808;2023-08-08T00:09:44;4.65;;;2.67;;
43248;SDS011;29216;51.248;6.808;2023-08-08T00:12:10;4.93;;;2.20;;
43248;SDS011;29216;51.248;6.808;2023-08-08T00:14:36;3.00;;;2.45;;
43248;SDS011;29216;51.248;6.808;2023-08-08T00:17:02;3.47;;;2.50;;
43248;SDS011;29216;51.248;6.808;2023-08-08T00:19:28;3.67;;;2.38;;
43248;SDS011;29216;51.248;6.808;2023-08-08T00:21:54;3.25;;;2.20;;
43248;SDS011;29216;51.248;6.808;2023-08-08T00:24:23;3.65;;;2.33;;
43248;SDS011;29216;51.248;6.808;2023-08-08T00:26:49;4.40;;;2.50;;
43248;SDS011;29216;51.248;6.808;2023-08-08T00:29:18;2.53;;;2.20;;
43248;SDS011;29216;51.248;6.808;2023-08-08T00:31:47;4.53;;;2.22;;
43248;SDS011;29216;51.248;6.808;2023-08-08T00:34:15;7.55;;;2.78;;
43248;SDS011;29216;51.248;6.808;2023-08-08T00:36:46;3.95;;;2.60;;
43248;SDS011;29216;51.248;6.808;2023-08-08T00:39:15;3.13;;;2.30;;
43248;SDS011;29216;51.248;6.808;2023-08-08T00:41:44;5.03;;;2.50;;
43248;SDS011;29216;51.248;6.808;2023-08-08T00:44:13;5.20;;;2.90;;
43248;SDS011;29216;51.248;6.808;2023-08-08T00:46:39;4.82;;;2.33;;
43248;SDS011;29216;51.248;6.808;2023-08-08T00:49:05;4.53;;;2.50;;
43248;SDS011;29216;51.248;6.808;2023-08-08T00:51:31;3.55;;;2.35;;
43248;SDS011;29216;51.248;6.808;2023-08-08T00:54:00;3.05;;;2.53;;
43248;SDS011;29216;51.248;6.808;2023-08-08T00:56:31;5.60;;;2.63;;
43248;SDS011;29216;51.248;6.808;2023-08-08T00:58:58;6.03;;;3.10;;
43248;SDS011;29216;51.248;6.808;2023-08-08T01:01:36;4.70;;;2.47;;
43248;SDS011;29216;51.248;6.808;2023-08-08T01:04:02;8.10;;;2.80;;
43248;SDS011;29216;51.248;6.808;2023-08-08T01:06:33;3.45;;;2.60;;
43248;SDS011;29216;51.248;6.808;2023-08-08T01:09:09;3.70;;;2.72;;
43248;SDS011;29216;51.248;6.808;2023-08-08T01:11:36;8.07;;;2.85;;
43248;SDS011;29216;51.248;6.808;2023-08-08T01:14:06;5.90;;;2.78;;
43248;SDS011;29216;51.248;6.808;2023-08-08T01:16:33;5.40;;;3.40;;
43248;SDS011;29216;51.248;6.808;2023-08-08T01:18:59;5.35;;;3.30;;
43248;SDS011;29216;51.248;6.808;2023-08-08T01:21:26;7.47;;;2.90;;
43248;SDS011;29216;51.248;6.808;2023-08-08T01:23:53;3.92;;;2.72;;
43248;SDS011;29216;51.248;6.808;2023-08-08T01:26:22;3.95;;;2.95;;
43248;SDS011;29216;51.248;6.808;2023-08-08T01:28:52;5.40;;;2.83;;
43248;SDS011;29216;51.248;6.808;2023-08-08T01:31:18;6.68;;;3.00;;
43248;SDS011;29216;51.248;6.808;2023-08-08T01:33:44;4.85;;;3.13;;
43248;SDS011;29216;51.248;6.808;2023-08-08T01:36:11;4.97;;;2.85;;
43248;SDS011;29216;51.248;6.808;2023-08-08T01:38:45;5.88;;;2.90;;
43248;SDS011;29216;51.248;6.808;2023-08-08T01:41:11;6.00;;;3.20;;
43248;SDS011;29216;51.248;6.808;2023-08-08T01:43:38;4.07;;;2.65;;
43248;SDS011;29216;51.248;6.808;2023-08-08T01:46:05;4.00;;;2.83;;
43248;SDS011;29216;51.248;6.808;2023-08-08T01:48:34;5.45;;;3.40;;
43248;SDS011;29216;51.248;6.808;2023-08-08T01:51:00;5.28;;;3.17;;
43248;SDS011;29216;51.248;6.808;2023-08-08T01:53:26;5.32;;;3.20;;
43248;SDS011;29216;51.248;6.808;2023-08-08T01:55:52;4.03;;;3.13;;
43248;SDS011;29216;51.248;6.808;2023-08-08T01:58:18;4.30;;;3.00;;
43248;SDS011;29216;51.248;6.808;2023-08-08T02:00:44;5.40;;;3.22;;
43248;SDS011;29216;51.248;6.808;2023-08-08T02:03:11;7.97;;;3.50;;
43248;SDS011;29216;51.248;6.808;2023-08-08T02:05:37;5.82;;;3.17;;
43248;SDS011;29216;51.248;6.808;2023-08-08T02:08:04;7.10;;;3.10;;
43248;SDS011;29216;51.248;6.808;2023-08-08T02:10:30;7.38;;;3.20;;
43248;SDS011;29216;51.248;6.808;2023-08-08T02:12:56;6.35;;;3.05;;
43248;SDS011;29216;51.248;6.808;2023-08-08T02:15:22;7.32;;;3.00;;
43248;SDS011;29216;51.248;6.808;2023-08-08T02:17:49;5.88;;;2.70;;
43248;SDS011;29216;51.248;6.808;2023-08-08T02:20:15;4.90;;;3.05;;
43248;SDS011;29216;51.248;6.808;2023-08-08T02:22:43;6.97;;;3.30;;
43248;SDS011;29216;51.248;6.808;2023-08-08T02:25:08;5.60;;;3.00;;
43248;SDS011;29216;51.248;6.808;2023-08-08T02:27:34;4.57;;;3.10;;
43248;SDS011;29216;51.248;6.808;2023-08-08T02:30:00;4.90;;;3.00;;
43248;SDS011;29216;51.248;6.808;2023-08-08T02:32:26;7.85;;;3.15;;
43248;SDS011;29216;51.248;6.808;2023-08-08T02:34:53;5.68;;;3.10;;
43248;SDS011;29216;51.248;6.808;2023-08-08T02:37:19;6.28;;;2.92;;
43248;SDS011;29216;51.248;6.808;2023-08-08T02:39:47;5.00;;;3.15;;
43248;SDS011;29216;51.248;6.808;2023-08-08T02:42:19;3.78;;;2.60;;
43248;SDS011;29216;51.248;6.808;2023-08-08T02:44:45;6.35;;;3.15;;
43248;SDS011;29216;51.248;6.808;2023-08-08T02:47:11;3.63;;;2.78;;
43248;SDS011;29216;51.248;6.808;2023-08-08T02:49:39;3.72;;;2.72;;
43248;SDS011;29216;51.248;6.808;2023-08-08T02:52:08;6.00;;;3.05;;
43248;SDS011;29216;51.248;6.808;2023-08-08T02:54:34;5.28;;;2.83;;
43248;SDS011;29216;51.248;6.808;2023-08-08T02:57:00;4.07;;;2.45;;
43248;SDS011;29216;51.248;6.808;2023-08-08T02:59:26;8.52;;;3.22;;
43248;SDS011;29216;51.248;6.808;2023-08-08T03:01:52;9.50;;;3.10;;
43248;SDS011;29216;51.248;6.808;2023-08-08T03:04:21;7.68;;;3.00;;
43248;SDS011;29216;51.248;6.808;2023-08-08T03:06:53;4.22;;;3.05;;
43248;SDS011;29216;51.248;6.808;2023-08-08T03:09:19;4.97;;;2.88;;
43248;SDS011;29216;51.248;6.808;2023-08-08T03:11:45;7.28;;;2.70;;
43248;SDS011;29216;51.248;6.808;2023-08-08T03:14:11;7.88;;;3.22;;
43248;SDS011;29216;51.248;6.808;2023-08-08T03:16:37;4.75;;;3.00;;
43248;SDS011;29216;51.248;6.808;2023-08-08T03:19:03;4.45;;;3.00;;
43248;SDS011;29216;51.248;6.808;2023-08-08T03:21:31;5.25;;;2.80;;
43248;SDS011;29216;51.248;6.808;2023-08-08T03:23:57;4.47;;;3.15;;
43248;SDS011;29216;51.248;6.808;2023-08-08T03:26:23;4.85;;;2.65;;
43248;SDS011;29216;51.248;6.808;2023-08-08T03:28:49;3.70;;;2.60;;
43248;SDS011;29216;51.248;6.808;2023-08-08T03:31:21;6.85;;;3.13;;
43248;SDS011;29216;51.248;6.808;2023-08-08T03:33:52;7.15;;;2.90;;
43248;SDS011;29216;51.248;6.808;2023-08-08T03:36:21;9.75;;;3.03;;
43248;SDS011;29216;51.248;6.808;2023-08-08T03:38:50;8.05;;;2.80;;
43248;SDS011;29216;51.248;6.808;2023-08-08T03:41:19;5.70;;;3.00;;
43248;SDS011;29216;51.248;6.808;2023-08-08T03:43:45;10.85;;;4.07;;
43248;SDS011;29216;51.248;6.808;2023-08-08T03:46:11;7.00;;;3.00;;
43248;SDS011;29216;51.248;6.808;2023-08-08T03:48:39;9.43;;;3.38;;
43248;SDS011;29216;51.248;6.808;2023-08-08T03:51:05;8.07;;;3.28;;
43248;SDS011;29216;51.248;6.808;2023-08-08T03:53:32;6.93;;;2.78;;
43248;SDS011;29216;51.248;6.808;2023-08-08T03:56:01;6.90;;;2.78;;
43248;SDS011;29216;51.248;6.808;2023-08-08T03:58:27;8.05;;;3.20;;
43248;SDS011;29216;51.248;6.808;2023-08-08T04:00:53;5.95;;;2.95;;
43248;SDS011;29216;51.248;6.808;2023-08-08T04:03:19;12.38;;;3.25;;
43248;SDS011;29216;51.248;6.808;2023-08-08T04:05:48;6.10;;;3.05;;
43248;SDS011;29216;51.248;6.808;2023-08-08T04:08:14;7.32;;;4.13;;
43248;SDS011;29216;51.248;6.808;2023-08-08T04:10:41;5.60;;;2.92;;
43248;SDS011;29216;51.248;6.808;2023-08-08T04:13:07;10.40;;;2.97;;
43248;SDS011;29216;51.248;6.808;2023-08-08T04:15:33;8.25;;;3.17;;
43248;SDS011;29216;51.248;6.808;2023-08-08T04:17:59;10.20;;;3.58;;
43248;SDS011;29216;51.248;6.808;2023-08-08T04:20:27;8.63;;;3.75;;
43248;SDS011;29216;51.248;6.808;2023-08-08T04:22:56;6.88;;;3.60;;
43248;SDS011;29216;51.248;6.808;2023-08-08T04:25:25;9.05;;;3.60;;
43248;SDS011;29216;51.248;6.808;2023-08-08T04:27:51;7.93;;;4.00;;
43248;SDS011;29216;51.248;6.808;2023-08-08T04:30:17;6.82;;;3.38;;
43248;SDS011;29216;51.248;6.808;2023-08-08T04:32:43;10.18;;;3.70;;
43248;SDS011;29216;51.248;6.808;2023-08-08T04:35:09;9.18;;;3.55;;
43248;SDS011;29216;51.248;6.808;2023-08-08T04:37:35;7.45;;;3.67;;
43248;SDS011;29216;51.248;6.808;2023-08-08T04:40:01;9.55;;;3.60;;
43248;SDS011;29216;51.248;6.808;2023-08-08T04:42:27;8.27;;;3.42;;
43248;SDS011;29216;51.248;6.808;2023-08-08T04:44:53;12.60;;;4.30;;
43248;SDS011;29216;51.248;6.808;2023-08-08T04:47:19;9.85;;;3.72;;
43248;SDS011;29216;51.248;6.808;2023-08-08T04:49:45;10.00;;;4.00;;
43248;SDS011;29216;51.248;6.808;2023-08-08T04:52:11;8.45;;;4.60;;
43248;SDS011;29216;51.248;6.808;2023-08-08T04:54:37;11.45;;;4.13;;
43248;SDS011;29216;51.248;6.808;2023-08-08T04:57:03;5.97;;;3.72;;
43248;SDS011;29216;51.248;6.808;2023-08-08T04:59:29;9.30;;;3.55;;
43248;SDS011;29216;51.248;6.808;2023-08-08T05:01:55;11.45;;;4.20;;
43248;SDS011;29216;51.248;6.808;2023-08-08T05:04:21;10.27;;;3.70;;
43248;SDS011;29216;51.248;6.808;2023-08-08T05:06:47;12.75;;;4.88;;
43248;SDS011;29216;51.248;6.808;2023-08-08T05:09:13;11.63;;;3.95;;
43248;SDS011;29216;51.248;6.808;2023-08-08T05:11:40;9.80;;;3.90;;
43248;SDS011;29216;51.248;6.808;2023-08-08T05:14:06;10.15;;;3.83;;
43248;SDS011;29216;51.248;6.808;2023-08-08T05:16:32;10.57;;;4.55;;
43248;SDS011;29216;51.248;6.808;2023-08-08T05:18:58;14.13;;;4.20;;
43248;SDS011;29216;51.248;6.808;2023-08-08T05:21:24;8.60;;;4.35;;
43248;SDS011;29216;51.248;6.808;2023-08-08T05:23:50;9.82;;;4.00;;
43248;SDS011;29216;51.248;6.808;2023-08-08T05:26:16;9.95;;;4.28;;
43248;SDS011;29216;51.248;6.808;2023-08-08T05:28:42;13.43;;;4.28;;
43248;SDS011;29216;51.248;6.808;2023-08-08T05:31:08;11.50;;;3.97;;
43248;SDS011;29216;51.248;6.808;2023-08-08T05:33:35;9.23;;;3.50;;
43248;SDS011;29216;51.248;6.808;2023-08-08T05:36:01;15.20;;;5.13;;
43248;SDS011;29216;51.248;6.808;2023-08-08T05:38:27;6.70;;;3.60;;
43248;SDS011;29216;51.248;6.808;2023-08-08T05:40:53;8.93;;;3.78;;
43248;SDS011;29216;51.248;6.808;2023-08-08T05:43:19;9.15;;;4.50;;
43248;SDS011;29216;51.248;6.808;2023-08-08T05:45:46;11.70;;;4.60;;
43248;SDS011;29216;51.248;6.808;2023-08-08T05:48:12;14.82;;;4.53;;
43248;SDS011;29216;51.248;6.808;2023-08-08T05:50:39;8.70;;;4.45;;
43248;SDS011;29216;51.248;6.808;2023-08-08T05:53:05;15.50;;;5.22;;
43248;SDS011;29216;51.248;6.808;2023-08-08T05:55:31;13.88;;;5.07;;
43248;SDS011;29216;51.248;6.808;2023-08-08T05:57:57;11.13;;;4.50;;
43248;SDS011;29216;51.248;6.808;2023-08-08T06:00:23;18.85;;;5.07;;
43248;SDS011;29216;51.248;6.808;2023-08-08T06:02:49;10.48;;;4.70;;
43248;SDS011;29216;51.248;6.808;2023-08-08T06:05:19;15.65;;;5.15;;
43248;SDS011;29216;51.248;6.808;2023-08-08T06:07:47;14.73;;;5.35;;
43248;SDS011;29216;51.248;6.808;2023-08-08T06:10:13;12.48;;;5.25;;
43248;SDS011;29216;51.248;6.808;2023-08-08T06:12:39;10.80;;;4.75;;
43248;SDS011;29216;51.248;6.808;2023-08-08T06:15:05;10.63;;;4.95;;
43248;SDS011;29216;51.248;6.808;2023-08-08T06:17:31;18.80;;;4.68;;
43248;SDS011;29216;51.248;6.808;2023-08-08T06:19:57;13.10;;;4.70;;
43248;SDS011;29216;51.248;6.808;2023-08-08T06:22:23;9.02;;;4.40;;
43248;SDS011;29216;51.248;6.808;2023-08-08T06:24:50;10.77;;;4.40;;
43248;SDS011;29216;51.248;6.808;2023-08-08T06:27:16;10.02;;;4.07;;
43248;SDS011;29216;51.248;6.808;2023-08-08T06:29:42;13.50;;;4.47;;
43248;SDS011;29216;51.248;6.808;2023-08-08T06:32:08;10.15;;;4.35;;
43248;SDS011;29216;51.248;6.808;2023-08-08T06:34:34;13.48;;;4.50;;
43248;SDS011;29216;51.248;6.808;2023-08-08T06:37:00;9.32;;;4.43;;
43248;SDS011;29216;51.248;6.808;2023-08-08T06:39:26;12.27;;;4.32;;
43248;SDS011;29216;51.248;6.808;2023-08-08T06:41:52;12.73;;;4.45;;
43248;SDS011;29216;51.248;6.808;2023-08-08T06:44:18;8.57;;;3.90;;
43248;SDS011;29216;51.248;6.808;2023-08-08T06:46:45;8.70;;;4.05;;
43248;SDS011;29216;51.248;6.808;2023-08-08T06:49:11;13.93;;;4.43;;
43248;SDS011;29216;51.248;6.808;2023-08-08T06:51:37;14.25;;;4.47;;
43248;SDS011;29216;51.248;6.808;2023-08-08T06:54:03;13.07;;;4.35;;
43248;SDS011;29216;51.248;6.808;2023-08-08T06:56:29;9.82;;;4.10;;
43248;SDS011;29216;51.248;6.808;2023-08-08T06:58:55;12.55;;;3.95;;
43248;SDS011;29216;51.248;6.808;2023-08-08T07:01:21;10.55;;;4.97;;
43248;SDS011;29216;51.248;6.808;2023-08-08T07:03:47;8.55;;;3.88;;
43248;SDS011;29216;51.248;6.808;2023-08-08T07:06:13;8.98;;;3.90;;
43248;SDS011;29216;51.248;6.808;2023-08-08T07:08:39;7.50;;;3.50;;
43248;SDS011;29216;51.248;6.808;2023-08-08T07:11:07;15.63;;;5.15;;
43248;SDS011;29216;51.248;6.808;2023-08-08T07:13:45;9.15;;;3.85;;
43248;SDS011;29216;51.248;6.808;2023-08-08T07:16:11;11.05;;;4.30;;
43248;SDS011;29216;51.248;6.808;2023-08-08T07:18:37;11.75;;;3.67;;
43248;SDS011;29216;51.248;6.808;2023-08-08T07:21:03;9.07;;;3.92;;
43248;SDS011;29216;51.248;6.808;2023-08-08T07:23:30;6.78;;;3.60;;
43248;SDS011;29216;51.248;6.808;2023-08-08T07:25:56;10.63;;;3.55;;
43248;SDS011;29216;51.248;6.808;2023-08-08T07:28:22;9.80;;;3.53;;
43248;SDS011;29216;51.248;6.808;2023-08-08T07:30:48;9.55;;;3.28;;
43248;SDS011;29216;51.248;6.808;2023-08-08T07:33:14;8.98;;;3.78;;
43248;SDS011;29216;51.248;6.808;2023-08-08T07:35:40;10.40;;;3.70;;
43248;SDS011;29216;51.248;6.808;2023-08-08T07:38:06;11.32;;;3.90;;
43248;SDS011;29216;51.248;6.808;2023-08-08T07:40:32;11.43;;;3.25;;
43248;SDS011;29216;51.248;6.808;2023-08-08T07:42:58;9.98;;;3.75;;
43248;SDS011;29216;51.248;6.808;2023-08-08T07:45:24;6.63;;;3.17;;
43248;SDS011;29216;51.248;6.808;2023-08-08T07:47:50;11.00;;;3.40;;
43248;SDS011;29216;51.248;6.808;2023-08-08T07:50:16;8.80;;;3.53;;
43248;SDS011;29216;51.248;6.808;2023-08-08T07:52:43;6.70;;;2.90;;
43248;SDS011;29216;51.248;6.808;2023-08-08T07:55:09;7.85;;;3.25;;
43248;SDS011;29216;51.248;6.808;2023-08-08T07:57:35;8.40;;;3.30;;
43248;SDS011;29216;51.248;6.808;2023-08-08T08:00:02;8.50;;;3.30;;
43248;SDS011;29216;51.248;6.808;2023-08-08T08:02:37;6.93;;;3.10;;
43248;SDS011;29216;51.248;6.808;2023-08-08T08:05:03;8.68;;;2.90;;
43248;SDS011;29216;51.248;6.808;2023-08-08T08:07:32;18.05;;;8.27;;
43248;SDS011;29216;51.248;6.808;2023-08-08T08:09:58;8.30;;;3.28;;
43248;SDS011;29216;51.248;6.808;2023-08-08T08:12:24;9.95;;;3.10;;
43248;SDS011;29216;51.248;6.808;2023-08-08T08:14:50;7.82;;;3.35;;
43248;SDS011;29216;51.248;6.808;2023-08-08T08:17:19;7.20;;;2.88;;
43248;SDS011;29216;51.248;6.808;2023-08-08T08:19:45;13.50;;;3.42;;
43248;SDS011;29216;51.248;6.808;2023-08-08T08:22:11;9.25;;;3.25;;
43248;SDS011;29216;51.248;6.808;2023-08-08T08:24:37;11.88;;;2.90;;
43248;SDS011;29216;51.248;6.808;2023-08-08T08:27:03;8.38;;;3.00;;
43248;SDS011;29216;51.248;6.808;2023-08-08T08:29:29;10.77;;;2.70;;
43248;SDS011;29216;51.248;6.808;2023-08-08T08:31:56;8.10;;;3.08;;
43248;SDS011;29216;51.248;6.808;2023-08-08T08:34:22;9.73;;;3.88;;
43248;SDS011;29216;51.248;6.808;2023-08-08T08:36:48;6.10;;;2.63;;
43248;SDS011;29216;51.248;6.808;2023-08-08T08:39:14;9.60;;;3.72;;
43248;SDS011;29216;51.248;6.808;2023-08-08T08:41:40;10.02;;;3.60;;
43248;SDS011;29216;51.248;6.808;2023-08-08T08:44:06;6.97;;;2.90;;
43248;SDS011;29216;51.248;6.808;2023-08-08T08:46:32;8.30;;;3.63;;
43248;SDS011;29216;51.248;6.808;2023-08-08T08:49:05;14.75;;;3.00;;
43248;SDS011;29216;51.248;6.808;2023-08-08T08:51:33;6.95;;;3.20;;
43248;SDS011;29216;51.248;6.808;2023-08-08T08:53:59;7.55;;;3.55;;
43248;SDS011;29216;51.248;6.808;2023-08-08T08:56:25;12.43;;;3.08;;
43248;SDS011;29216;51.248;6.808;2023-08-08T08:58:51;8.68;;;3.22;;
43248;SDS011;29216;51.248;6.808;2023-08-08T09:01:17;7.50;;;2.85;;
43248;SDS011;29216;51.248;6.808;2023-08-08T09:03:44;9.18;;;3.42;;
43248;SDS011;29216;51.248;6.808;2023-08-08T09:06:11;8.40;;;3.10;;
43248;SDS011;29216;51.248;6.808;2023-08-08T09:08:37;4.80;;;2.72;;
43248;SDS011;29216;51.248;6.808;2023-08-08T09:11:03;8.45;;;2.97;;
43248;SDS011;29216;51.248;6.808;2023-08-08T09:13:36;9.55;;;3.35;;
43248;SDS011;29216;51.248;6.808;2023-08-08T09:16:04;8.63;;;3.38;;
43248;SDS011;29216;51.248;6.808;2023-08-08T09:18:30;7.68;;;3.22;;
43248;SDS011;29216;51.248;6.808;2023-08-08T09:20:57;7.53;;;3.10;;
43248;SDS011;29216;51.248;6.808;2023-08-08T09:23:23;13.85;;;4.25;;
43248;SDS011;29216;51.248;6.808;2023-08-08T09:25:49;8.07;;;2.75;;
43248;SDS011;29216;51.248;6.808;2023-08-08T09:28:15;6.43;;;2.88;;
43248;SDS011;29216;51.248;6.808;2023-08-08T09:30:41;7.75;;;3.20;;
43248;SDS011;29216;51.248;6.808;2023-08-08T09:33:08;6.47;;;2.65;;
43248;SDS011;29216;51.248;6.808;2023-08-08T09:35:34;8.60;;;2.85;;
43248;SDS011;29216;51.248;6.808;2023-08-08T09:38:03;13.23;;;3.08;;
43248;SDS011;29216;51.248;6.808;2023-08-08T09:40:29;10.10;;;3.47;;
43248;SDS011;29216;51.248;6.808;2023-08-08T09:42:56;6.47;;;2.88;;
43248;SDS011;29216;51.248;6.808;2023-08-08T09:45:22;5.35;;;2.63;;
43248;SDS011;29216;51.248;6.808;2023-08-08T09:47:49;7.60;;;2.95;;
43248;SDS011;29216;51.248;6.808;2023-08-08T09:50:15;4.75;;;2.45;;
43248;SDS011;29216;51.248;6.808;2023-08-08T09:52:41;5.57;;;2.97;;
43248;SDS011;29216;51.248;6.808;2023-08-08T09:55:07;9.85;;;2.95;;
43248;SDS011;29216;51.248;6.808;2023-08-08T09:57:33;6.55;;;2.63;;
43248;SDS011;29216;51.248;6.808;2023-08-08T10:00:00;5.15;;;2.58;;
43248;SDS011;29216;51.248;6.808;2023-08-08T10:02:28;8.43;;;2.78;;
43248;SDS011;29216;51.248;6.808;2023-08-08T10:04:54;8.98;;;2.88;;
43248;SDS011;29216;51.248;6.808;2023-08-08T10:07:22;5.93;;;2.88;;
43248;SDS011;29216;51.248;6.808;2023-08-08T10:09:48;6.38;;;2.63;;
43248;SDS011;29216;51.248;6.808;2023-08-08T10:12:14;8.23;;;2.53;;
43248;SDS011;29216;51.248;6.808;2023-08-08T10:14:42;10.88;;;3.10;;
43248;SDS011;29216;51.248;6.808;2023-08-08T10:17:08;9.20;;;2.67;;
43248;SDS011;29216;51.248;6.808;2023-08-08T10:19:38;6.45;;;2.90;;
43248;SDS011;29216;51.248;6.808;2023-08-08T10:22:04;5.93;;;2.72;;
43248;SDS011;29216;51.248;6.808;2023-08-08T10:24:34;7.07;;;2.67;;
43248;SDS011;29216;51.248;6.808;2023-08-08T10:27:03;9.55;;;2.72;;
43248;SDS011;29216;51.248;6.808;2023-08-08T10:29:30;7.00;;;2.97;;
43248;SDS011;29216;51.248;6.808;2023-08-08T10:32:00;5.72;;;2.70;;
43248;SDS011;29216;51.248;6.808;2023-08-08T10:34:46;8.13;;;2.78;;
43248;SDS011;29216;51.248;6.808;2023-08-08T10:39:48;8.07;;;3.08;;
43248;SDS011;29216;51.248;6.808;2023-08-08T10:42:17;8.50;;;3.00;;
43248;SDS011;29216;51.248;6.808;2023-08-08T10:44:50;7.00;;;3.20;;
43248;SDS011;29216;51.248;6.808;2023-08-08T10:47:21;6.50;;;3.08;;
43248;SDS011;29216;51.248;6.808;2023-08-08T10:49:55;5.32;;;2.72;;
43248;SDS011;29216;51.248;6.808;2023-08-08T10:52:21;3.85;;;2.53;;
43248;SDS011;29216;51.248;6.808;2023-08-08T10:54:54;8.10;;;3.05;;
43248;SDS011;29216;51.248;6.808;2023-08-08T10:57:20;9.25;;;3.15;;
43248;SDS011;29216;51.248;6.808;2023-08-08T10:59:46;12.10;;;3.10;;
43248;SDS011;29216;51.248;6.808;2023-08-08T11:02:12;3.97;;;2.65;;
43248;SDS011;29216;51.248;6.808;2023-08-08T11:04:39;8.20;;;3.40;;
43248;SDS011;29216;51.248;6.808;2023-08-08T11:07:06;8.50;;;2.95;;
43248;SDS011;29216;51.248;6.808;2023-08-08T11:09:32;7.22;;;3.20;;
43248;SDS011;29216;51.248;6.808;2023-08-08T11:11:58;8.05;;;3.33;;
43248;SDS011;29216;51.248;6.808;2023-08-08T11:14:24;7.28;;;3.15;;
43248;SDS011;29216;51.248;6.808;2023-08-08T11:16:51;6.13;;;3.20;;
43248;SDS011;29216;51.248;6.808;2023-08-08T11:19:17;10.25;;;3.08;;
43248;SDS011;29216;51.248;6.808;2023-08-08T11:21:44;7.93;;;2.83;;
43248;SDS011;29216;51.248;6.808;2023-08-08T11:24:11;8.93;;;3.45;;
43248;SDS011;29216;51.248;6.808;2023-08-08T11:26:38;8.00;;;3.20;;
43248;SDS011;29216;51.248;6.808;2023-08-08T11:29:05;7.70;;;2.97;;
43248;SDS011;29216;51.248;6.808;2023-08-08T11:31:31;7.90;;;3.17;;
43248;SDS011;29216;51.248;6.808;2023-08-08T11:33:58;8.98;;;3.35;;
43248;SDS011;29216;51.248;6.808;2023-08-08T11:36:24;7.00;;;3.00;;
43248;SDS011;29216;51.248;6.808;2023-08-08T11:38:51;6.07;;;2.97;;
43248;SDS011;29216;51.248;6.808;2023-08-08T11:41:18;8.50;;;2.67;;
43248;SDS011;29216;51.248;6.808;2023-08-08T11:43:46;7.72;;;3.10;;
43248;SDS011;29216;51.248;6.808;2023-08-08T11:46:13;6.53;;;2.50;;
43248;SDS011;29216;51.248;6.808;2023-08-08T11:48:39;7.18;;;3.10;;
43248;SDS011;29216;51.248;6.808;2023-08-08T11:51:05;6.85;;;2.78;;
43248;SDS011;29216;51.248;6.808;2023-08-08T11:53:31;11.93;;;3.28;;
43248;SDS011;29216;51.248;6.808;2023-08-08T11:55:58;5.55;;;3.13;;
43248;SDS011;29216;51.248;6.808;2023-08-08T11:58:25;5.10;;;2.72;;
43248;SDS011;29216;51.248;6.808;2023-08-08T12:00:51;4.00;;;2.72;;
43248;SDS011;29216;51.248;6.808;2023-08-08T12:03:19;5.88;;;3.00;;
43248;SDS011;29216;51.248;6.808;2023-08-08T12:05:46;10.23;;;3.00;;
43248;SDS011;29216;51.248;6.808;2023-08-08T12:08:12;8.98;;;3.28;;
43248;SDS011;29216;51.248;6.808;2023-08-08T12:10:40;13.60;;;3.92;;
43248;SDS011;29216;51.248;6.808;2023-08-08T12:13:13;13.40;;;3.72;;
43248;SDS011;29216;51.248;6.808;2023-08-08T12:15:38;6.75;;;3.08;;
43248;SDS011;29216;51.248;6.808;2023-08-08T12:18:04;4.82;;;2.58;;
43248;SDS011;29216;51.248;6.808;2023-08-08T12:20:31;7.65;;;3.00;;
43248;SDS011;29216;51.248;6.808;2023-08-08T12:22:57;6.50;;;2.65;;
43248;SDS011;29216;51.248;6.808;2023-08-08T12:25:23;5.18;;;2.80;;
43248;SDS011;29216;51.248;6.808;2023-08-08T12:27:51;6.82;;;3.08;;
43248;SDS011;29216;51.248;6.808;2023-08-08T12:30:17;6.60;;;2.58;;
43248;SDS011;29216;51.248;6.808;2023-08-08T12:32:43;5.20;;;2.33;;
43248;SDS011;29216;51.248;6.808;2023-08-08T12:35:09;4.35;;;2.40;;
43248;SDS011;29216;51.248;6.808;2023-08-08T12:37:35;7.82;;;2.72;;
43248;SDS011;29216;51.248;6.808;2023-08-08T12:40:01;5.80;;;2.38;;
43248;SDS011;29216;51.248;6.808;2023-08-08T12:42:28;3.13;;;2.25;;
43248;SDS011;29216;51.248;6.808;2023-08-08T12:44:54;7.90;;;2.92;;
43248;SDS011;29216;51.248;6.808;2023-08-08T12:47:20;7.55;;;2.70;;
43248;SDS011;29216;51.248;6.808;2023-08-08T12:49:46;6.68;;;2.88;;
43248;SDS011;29216;51.248;6.808;2023-08-08T12:52:12;4.60;;;2.75;;
43248;SDS011;29216;51.248;6.808;2023-08-08T12:54:38;5.72;;;2.80;;
43248;SDS011;29216;51.248;6.808;2023-08-08T12:57:04;9.35;;;2.90;;
43248;SDS011;29216;51.248;6.808;2023-08-08T12:59:30;6.78;;;2.70;;
43248;SDS011;29216;51.248;6.808;2023-08-08T13:01:56;6.85;;;2.72;;
43248;SDS011;29216;51.248;6.808;2023-08-08T13:04:22;8.68;;;3.00;;
43248;SDS011;29216;51.248;6.808;2023-08-08T13:06:48;4.65;;;2.75;;
43248;SDS011;29216;51.248;6.808;2023-08-08T13:09:15;6.07;;;2.92;;
43248;SDS011;29216;51.248;6.808;2023-08-08T13:11:41;6.40;;;2.72;;
43248;SDS011;29216;51.248;6.808;2023-08-08T13:14:07;5.72;;;2.63;;
43248;SDS011;29216;51.248;6.808;2023-08-08T13:16:33;3.95;;;2.55;;
43248;SDS011;29216;51.248;6.808;2023-08-08T13:18:59;5.72;;;3.25;;
43248;SDS011;29216;51.248;6.808;2023-08-08T13:21:25;4.80;;;2.70;;
43248;SDS011;29216;51.248;6.808;2023-08-08T13:23:52;5.82;;;2.70;;
43248;SDS011;29216;51.248;6.808;2023-08-08T13:26:18;5.80;;;2.63;;
43248;SDS011;29216;51.248;6.808;2023-08-08T13:28:44;6.35;;;2.70;;
43248;SDS011;29216;51.248;6.808;2023-08-08T13:31:10;6.97;;;3.20;;
43248;SDS011;29216;51.248;6.808;2023-08-08T13:33:36;7.40;;;3.08;;
43248;SDS011;29216;51.248;6.808;2023-08-08T13:36:02;8.02;;;2.95;;
43248;SDS011;29216;51.248;6.808;2023-08-08T13:38:29;7.88;;;2.85;;
43248;SDS011;29216;51.248;6.808;2023-08-08T13:40:55;7.78;;;2.90;;
43248;SDS011;29216;51.248;6.808;2023-08-08T13:43:21;6.85;;;3.03;;
43248;SDS011;29216;51.248;6.808;2023-08-08T13:45:47;5.72;;;2.72;;
43248;SDS011;29216;51.248;6.808;2023-08-08T13:48:13;5.80;;;2.95;;
43248;SDS011;29216;51.248;6.808;2023-08-08T13:50:39;4.45;;;2.50;;
43248;SDS011;29216;51.248;6.808;2023-08-08T13:53:05;5.57;;;2.75;;
43248;SDS011;29216;51.248;6.808;2023-08-08T13:55:31;4.78;;;2.53;;
43248;SDS011;29216;51.248;6.808;2023-08-08T13:58:04;7.20;;;2.80;;
43248;SDS011;29216;51.248;6.808;2023-08-08T14:00:30;5.85;;;2.63;;
43248;SDS011;29216;51.248;6.808;2023-08-08T14:02:57;4.82;;;2.65;;
43248;SDS011;29216;51.248;6.808;2023-08-08T14:05:23;6.80;;;3.20;;
43248;SDS011;29216;51.248;6.808;2023-08-08T14:07:49;4.10;;;2.40;;
43248;SDS011;29216;51.248;6.808;2023-08-08T14:10:15;6.72;;;2.80;;
43248;SDS011;29216;51.248;6.808;2023-08-08T14:12:41;4.80;;;2.78;;
43248;SDS011;29216;51.248;6.808;2023-08-08T14:15:07;8.90;;;3.00;;
43248;SDS011;29216;51.248;6.808;2023-08-08T14:17:37;4.45;;;2.30;;
43248;SDS011;29216;51.248;6.808;2023-08-08T14:20:03;5.30;;;2.60;;
43248;SDS011;29216;51.248;6.808;2023-08-08T14:22:30;9.23;;;3.22;;
43248;SDS011;29216;51.248;6.808;2023-08-08T14:24:56;5.00;;;2.83;;
43248;SDS011;29216;51.248;6.808;2023-08-08T14:27:22;5.45;;;2.50;;
43248;SDS011;29216;51.248;6.808;2023-08-08T14:29:48;5.22;;;2.60;;
43248;SDS011;29216;51.248;6.808;2023-08-08T14:32:14;3.97;;;2.53;;
43248;SDS011;29216;51.248;6.808;2023-08-08T14:34:40;7.45;;;2.60;;
43248;SDS011;29216;51.248;6.808;2023-08-08T14:37:06;3.30;;;2.38;;
43248;SDS011;29216;51.248;6.808;2023-08-08T14:39:32;4.88;;;2.47;;
43248;SDS011;29216;51.248;6.808;2023-08-08T14:41:58;5.63;;;2.50;;
43248;SDS011;29216;51.248;6.808;2023-08-08T14:44:24;4.60;;;2.40;;
43248;SDS011;29216;51.248;6.808;2023-08-08T14:46:51;4.80;;;2.47;;